createdAt,value
2022-11-26T00:00:38.719Z,13.02
2022-11-26T00:05:46.111Z,15.48
2022-11-26T00:10:50.958Z,10.35
2022-11-26T00:15:53.284Z,13.60
2022-11-26T00:20:59.544Z,16.45
2022-11-26T00:26:03.006Z,14.13
2022-11-26T00:31:06.738Z,15.90
2022-11-26T00:36:16.812Z,11.50
2022-11-26T00:41:21.916Z,15.85
2022-11-26T00:46:23.457Z,10.82
2022-11-26T00:51:27.172Z,9.07
2022-11-26T00:56:31.670Z,12.52
2022-11-26T01:01:37.567Z,11.48
2022-11-26T01:06:41.626Z,15.20
2022-11-26T01:11:43.243Z,27.90
2022-11-26T01:16:46.172Z,14.88
2022-11-26T01:21:47.630Z,13.40
2022-11-26T01:26:49.086Z,14.45
2022-11-26T01:31:50.549Z,10.20
2022-11-26T01:36:52.020Z,15.20
2022-11-26T01:42:18.293Z,15.60
2022-11-26T01:47:24.343Z,14.45
2022-11-26T01:52:26.427Z,8.60
2022-11-26T01:57:30.310Z,10.48
2022-11-26T02:02:31.917Z,12.80
2022-11-26T02:07:34.620Z,12.88
2022-11-26T02:12:37.684Z,14.40
2022-11-26T02:17:53.756Z,13.70
2022-11-26T02:22:55.361Z,11.23
2022-11-26T02:28:05.601Z,14.00
2022-11-26T02:33:42.795Z,16.42
2022-11-26T02:38:44.509Z,12.90
2022-11-26T02:43:46.954Z,10.63
2022-11-26T02:48:51.892Z,15.25
2022-11-26T02:53:55.212Z,9.45
2022-11-26T02:58:57.473Z,13.07
2022-11-26T03:04:12.770Z,19.30
2022-11-26T03:09:17.414Z,9.60
2022-11-26T03:14:18.848Z,17.08
2022-11-26T03:19:20.280Z,16.90
2022-11-26T03:24:21.940Z,11.80
2022-11-26T03:29:23.499Z,15.43
2022-11-26T03:34:25.110Z,10.13
2022-11-26T03:39:26.540Z,15.35
2022-11-26T03:44:28.012Z,13.18
2022-11-26T03:49:29.503Z,8.65
2022-11-26T03:54:31.017Z,14.15
2022-11-26T03:59:32.507Z,15.55
2022-11-26T04:04:34.015Z,18.55
2022-11-26T04:09:35.468Z,12.77
2022-11-26T04:14:37.401Z,13.13
2022-11-26T04:19:39.175Z,13.55
2022-11-26T04:24:40.974Z,13.13
2022-11-26T04:29:42.646Z,12.05
2022-11-26T04:34:44.137Z,12.80
2022-11-26T04:39:45.627Z,10.27
2022-11-26T04:44:47.110Z,13.93
2022-11-26T04:49:48.612Z,14.85
2022-11-26T04:54:50.048Z,14.52
2022-11-26T04:59:51.558Z,14.50
2022-11-26T05:04:53.009Z,18.45
2022-11-26T05:09:54.450Z,15.57
2022-11-26T05:14:56.076Z,19.08
2022-11-26T05:19:57.566Z,16.95
2022-11-26T05:24:59.089Z,10.55
2022-11-26T05:30:00.711Z,13.00
2022-11-26T05:35:02.185Z,12.63
2022-11-26T05:40:04.771Z,13.98
2022-11-26T05:45:07.211Z,9.88
2022-11-26T05:50:09.129Z,7.00
2022-11-26T05:55:10.675Z,8.75
2022-11-26T06:00:13.076Z,9.95
2022-11-26T06:05:14.553Z,10.02
2022-11-26T06:10:16.009Z,14.98
2022-11-26T06:15:17.575Z,14.60
2022-11-26T06:20:19.198Z,16.30
2022-11-26T06:25:20.700Z,14.18
2022-11-26T06:30:22.339Z,13.73
2022-11-26T06:35:23.926Z,17.08
2022-11-26T06:40:25.384Z,16.15
2022-11-26T06:45:26.932Z,12.07
2022-11-26T06:50:28.445Z,17.30
2022-11-26T06:55:29.863Z,18.80
2022-11-26T07:00:31.334Z,19.15
2022-11-26T07:05:35.051Z,23.88
2022-11-26T07:10:36.626Z,14.65
2022-11-26T07:15:38.157Z,27.90
2022-11-26T07:20:39.717Z,23.05
2022-11-26T07:25:41.167Z,20.67
2022-11-26T07:30:44.110Z,24.10
2022-11-26T07:35:45.575Z,14.70
2022-11-26T07:40:47.018Z,19.15
2022-11-26T07:45:48.582Z,19.90
2022-11-26T07:50:50.135Z,23.23
2022-11-26T07:55:51.617Z,17.50
2022-11-26T08:00:54.995Z,18.10
2022-11-26T08:05:56.630Z,25.30
2022-11-26T08:10:58.085Z,20.92
2022-11-26T08:15:59.636Z,28.10
2022-11-26T08:21:01.802Z,16.02
2022-11-26T08:31:34.736Z,18.27
2022-11-26T08:36:36.404Z,15.93
2022-11-26T08:41:37.904Z,18.15
2022-11-26T08:46:41.581Z,21.95
2022-11-26T08:51:43.952Z,18.83
2022-11-26T08:56:45.469Z,12.70
2022-11-26T09:01:47.018Z,17.23
2022-11-26T09:06:48.641Z,16.40
2022-11-26T09:11:52.082Z,15.93
2022-11-26T09:16:57.798Z,15.82
2022-11-26T09:22:00.106Z,16.05
2022-11-26T09:27:07.253Z,22.55
2022-11-26T09:32:24.314Z,16.48
2022-11-26T09:37:28.468Z,20.45
2022-11-26T09:42:52.075Z,18.63
2022-11-26T09:47:54.182Z,21.80
2022-11-26T09:53:13.290Z,15.93
2022-11-26T09:58:29.820Z,12.73
2022-11-26T10:03:37.312Z,13.77
2022-11-26T10:09:07.663Z,13.20
2022-11-26T10:14:39.775Z,16.55
2022-11-26T10:20:05.717Z,15.30
2022-11-26T10:25:17.424Z,16.98
2022-11-26T10:30:21.707Z,17.83
2022-11-26T10:35:29.882Z,15.10
2022-11-26T10:40:32.239Z,9.63
2022-11-26T10:45:49.773Z,14.55
2022-11-26T10:51:26.738Z,14.35
2022-11-26T10:56:46.613Z,14.98
2022-11-26T11:01:51.650Z,10.97
2022-11-26T11:06:58.549Z,15.98
2022-11-26T11:12:12.112Z,11.00
2022-11-26T11:17:32.358Z,18.70
2022-11-26T11:22:34.074Z,11.18
2022-11-26T11:27:43.944Z,14.10
2022-11-26T11:32:45.478Z,9.73
2022-11-26T11:37:54.268Z,16.33
2022-11-26T11:43:04.435Z,10.68
2022-11-26T11:48:48.168Z,8.32
2022-11-26T11:54:15.785Z,6.70
2022-11-26T12:00:09.743Z,10.35
2022-11-26T12:05:27.155Z,8.73
2022-11-26T12:10:41.966Z,10.18
2022-11-26T12:15:58.413Z,11.23
2022-11-26T12:21:10.333Z,9.10
2022-11-26T12:26:15.220Z,9.20
2022-11-26T12:31:26.528Z,11.43
2022-11-26T12:37:03.497Z,10.05
2022-11-26T12:42:13.050Z,15.27
2022-11-26T12:47:41.735Z,11.60
2022-11-26T12:52:51.951Z,10.20
2022-11-26T12:58:10.139Z,7.65
2022-11-26T13:03:18.223Z,11.90
2022-11-26T13:08:22.905Z,14.98
2022-11-26T13:13:43.010Z,16.23
2022-11-26T13:18:53.073Z,12.27
2022-11-26T13:24:25.164Z,12.90
2022-11-26T13:29:48.290Z,9.32
2022-11-26T13:34:58.760Z,8.30
2022-11-26T13:45:32.578Z,8.83
2022-11-26T13:50:46.135Z,8.63
2022-11-26T13:55:54.154Z,6.80
2022-11-26T14:00:55.923Z,11.65
2022-11-26T14:06:02.395Z,11.18
2022-11-26T14:11:09.377Z,8.52
2022-11-26T14:16:10.878Z,18.73
2022-11-26T14:21:13.252Z,13.98
2022-11-26T14:26:37.677Z,9.23
2022-11-26T14:31:46.218Z,7.53
2022-11-26T14:36:59.324Z,5.43
2022-11-26T14:42:06.103Z,7.80
2022-11-26T14:47:16.319Z,6.15
2022-11-26T14:52:28.617Z,11.33
2022-11-26T14:57:43.452Z,9.30
2022-11-26T15:02:45.903Z,14.35
2022-11-26T15:08:04.202Z,8.30
2022-11-26T15:13:24.826Z,6.70
2022-11-26T15:23:36.510Z,14.13
2022-11-26T15:28:40.876Z,11.98
2022-11-26T15:33:43.687Z,6.80
2022-11-26T15:39:03.390Z,10.75
2022-11-26T15:44:05.075Z,12.23
2022-11-26T15:49:17.908Z,19.83
2022-11-26T15:54:49.653Z,16.67
2022-11-26T15:59:54.765Z,14.43
2022-11-26T16:04:58.283Z,13.15
2022-11-26T16:10:19.235Z,9.88
2022-11-26T16:15:24.294Z,13.65
2022-11-26T16:20:28.660Z,16.92
2022-11-26T16:25:36.599Z,17.08
2022-11-26T16:30:44.075Z,22.85
2022-11-26T16:35:46.906Z,9.88
2022-11-26T16:40:49.157Z,15.00
2022-11-26T16:45:55.020Z,17.95
2022-11-26T16:50:56.852Z,19.98
2022-11-26T16:55:58.483Z,13.80
2022-11-26T17:01:00.323Z,12.85
2022-11-26T17:06:10.981Z,12.52
2022-11-26T17:16:17.955Z,9.25
2022-11-26T17:21:19.386Z,8.98
2022-11-26T17:26:23.392Z,15.98
2022-11-26T17:31:25.096Z,19.48
2022-11-26T17:36:26.809Z,16.40
2022-11-26T17:41:28.289Z,15.10
2022-11-26T17:46:31.223Z,14.23
2022-11-26T17:51:37.038Z,16.35
2022-11-26T17:56:38.545Z,10.88
2022-11-26T18:01:40.116Z,13.80
2022-11-26T18:07:01.122Z,17.73
2022-11-26T18:12:03.747Z,15.48
2022-11-26T18:17:05.279Z,17.27
2022-11-26T18:22:08.305Z,14.90
2022-11-26T18:27:09.769Z,24.08
2022-11-26T18:32:12.698Z,17.10
2022-11-26T18:37:14.259Z,13.75
2022-11-26T18:42:35.965Z,16.48
2022-11-26T18:47:37.755Z,22.27
2022-11-26T18:52:40.323Z,15.15
2022-11-26T18:57:41.794Z,17.77
2022-11-26T19:02:43.478Z,16.50
2022-11-26T19:07:45.194Z,21.33
2022-11-26T19:12:48.083Z,11.57
2022-11-26T19:17:49.622Z,13.13
2022-11-26T19:22:51.097Z,10.02
2022-11-26T19:27:52.558Z,35.65
2022-11-26T19:32:54.161Z,20.92
2022-11-26T19:37:55.636Z,23.10
2022-11-26T19:42:57.121Z,25.83
2022-11-26T19:47:58.577Z,20.70
2022-11-26T19:53:00.342Z,19.15
2022-11-26T19:58:01.797Z,17.80
2022-11-26T20:03:03.545Z,15.40
2022-11-26T20:08:05.264Z,16.40
2022-11-26T20:13:08.098Z,16.00
2022-11-26T20:18:09.937Z,15.52
2022-11-26T20:23:11.575Z,18.83
2022-11-26T20:28:13.042Z,12.45
2022-11-26T20:33:16.185Z,15.98
2022-11-26T20:38:18.012Z,14.80
2022-11-26T20:43:19.474Z,14.25
2022-11-26T20:48:20.999Z,9.82
2022-11-26T20:53:22.702Z,10.70
2022-11-26T20:58:25.574Z,11.27
2022-11-26T21:03:29.038Z,10.73
2022-11-26T21:08:30.650Z,12.95
2022-11-26T21:13:32.963Z,10.30
2022-11-26T21:18:34.502Z,8.40
2022-11-26T21:23:38.225Z,10.30
2022-11-26T21:28:40.050Z,10.75
2022-11-26T21:33:42.596Z,11.07
2022-11-26T21:38:48.339Z,13.98
2022-11-26T21:43:50.842Z,22.10
2022-11-26T21:48:54.143Z,18.85
2022-11-26T21:53:58.004Z,24.35
2022-11-26T21:59:01.013Z,12.25
2022-11-26T22:04:08.607Z,13.02
2022-11-26T22:09:11.474Z,11.20
2022-11-26T22:14:15.897Z,15.77
2022-11-26T22:19:17.748Z,12.15
2022-11-26T22:24:20.355Z,12.90
2022-11-26T22:29:21.987Z,7.88
2022-11-26T22:34:24.772Z,11.27
2022-11-26T22:39:27.910Z,11.27
2022-11-26T22:44:29.442Z,13.43
2022-11-26T22:49:30.928Z,10.85
2022-11-26T22:54:32.519Z,23.88
2022-11-26T22:59:33.950Z,46.38
2022-11-26T23:04:36.248Z,53.28
2022-11-26T23:09:46.520Z,68.65
2022-11-26T23:14:51.776Z,28.60
2022-11-26T23:19:53.546Z,33.67
2022-11-26T23:24:55.044Z,47.63
2022-11-26T23:29:56.769Z,34.28
2022-11-26T23:34:58.224Z,29.60
2022-11-26T23:39:59.679Z,28.00
2022-11-26T23:45:02.000Z,49.72
2022-11-26T23:50:04.433Z,164.27
2022-11-26T23:55:06.366Z,105.60
